World of Logs combat log analyzer allows gamers to save, share and analyze their raiding experiences conveniently and thoroughly in the Blizzard MMO World of Warcraft. If you're new here, make sure you check out the tour for a 1 minute introduction. If you have any questions, we're happy to answer them on the forums.

DPS HPS
Odyn
Helya
Guarm
Reports for Twilight Ascendant Council - statistics
# Date Time Damage DPS Guild Realm
101 11 Jul 2012 01:49 25.87M 236033.5 ScrubBusters EU-The Maelstrom
102 11 Jul 2012 01:49 25.87M 235992.6 ScrubBusters EU-The Maelstrom
103 06 Jul 2012 01:49 23.88M 217783.0 10SGGD EU-Aman'Thul
104 01 May 2012 01:49 24.92M 227099.9 Чёрный список EU-Гордунни
105 04 Jun 2012 01:49 24.69M 224868.2 Gag Reflex US-Dark Iron
106 17 Aug 2012 01:49 24.54M 223373.2 Nyxin's logs EU-Archimonde
107 23 Feb 2012 01:50 24.13M 219159.7 Aurora EU-Stormrage
108 26 Jul 2012 01:50 24.74M 223959.3 Gordita EU-Свежеватель Душ
109 16 Aug 2012 01:50 25.20M 227929.3 Set Sail for Fail EU-Nathrezim
110 16 Aug 2012 01:50 25.20M 227919.0 Harlequins EU-Dethecus
111 22 Mar 2012 01:50 24.76M 223723.2 DruzoBlint US-Area 52
112 22 Feb 2012 01:50 24.42M 220592.2 Midwinter US-Sargeras
113 26 Jun 2012 01:50 24.67M 222767.0 Фаэтон EU-Ясеневый лес
114 15 Apr 2012 01:50 24.45M 220695.4 Legendary Heroez US-Frostmourne
115 22 Feb 2012 01:50 24.42M 220309.5 Scrub10s US-Suramar
116 26 Apr 2012 01:50 24.37M 219775.2 Iterum10 EU-Aszune
117 23 Aug 2012 01:51 24.29M 218394.6 Справедливые EU-Термоштепсель
118 04 May 2012 01:51 24.18M 217223.2 DreamON! US-Area 52
119 12 Jul 2012 01:51 24.25M 217827.4 Immota Fides EU-Forscherliga
120 04 May 2012 01:51 24.18M 217203.7 Coon and friends US-Stormrage
121 01 May 2012 01:51 23.83M 213881.4 Tears of Abaddon 2T EU-Eredar
122 21 Aug 2012 01:51 25.20M 226115.5 Adapt US-Spirestone
123 20 Jun 2012 01:51 23.78M 213001.1 Kill it Please US-Frostmourne
124 16 Feb 2012 01:51 24.38M 218317.5 Alucard Privat Log EU-Nera'thor
125 10 Aug 2012 01:51 24.20M 216545.4 ChiChi US-Lightning's Blade
126 04 Dec 2011 01:51 23.97M 214471.6 Mitosis US-Malygos
127 24 Jul 2012 01:51 24.47M 218735.4 Adapt US-Spirestone
128 03 May 2012 01:51 23.80M 212724.0 Almost Famous [Jadetea Logs] EU-Auchindoun
129 02 Feb 2012 01:51 80.37M 717870.2 Dreadnaut US-Echo Isles
130 17 Jul 2012 01:51 24.57M 219440.2 Nitokris EU-Ясеневый лес
131 18 Apr 2012 01:52 24.14M 215513.3 SCH US-Gorefiend
132 06 May 2012 01:52 25.14M 224339.1 Ultima Ratio EU-Nera'thor
133 11 Jan 2012 01:52 24.31M 216954.5 Night Shift US-Icecrown
134 07 May 2012 01:52 25.35M 226199.4 The War Council US-Silver Hand
135 29 Mar 2012 01:52 24.54M 218858.7 Naito und dies und das WOL EU-Kel'Thuzad
136 27 Jun 2012 01:52 23.73M 211152.7 One Spot EU-Darksorrow
137 29 Jul 2012 01:52 24.43M 217305.6 Ryan's Logs EU-Chamber of Aspects
138 19 Jun 2012 01:52 25.06M 222848.0 Gag Reflex US-Dark Iron
139 01 Jul 2012 01:52 24.85M 220632.3 Despotism US-Greymane
140 22 Aug 2012 01:52 23.27M 206283.2 AsianLogs US-Zul'jin
141 04 Aug 2012 01:52 25.76M 228199.5 Midwinter US-Sargeras
142 09 May 2012 01:53 23.63M 208972.6 Разбегаемся это Вайп EU-Свежеватель Душ
143 16 Mar 2012 01:53 24.78M 218939.4 Stormwatch EU-Ravencrest
144 16 Mar 2012 01:53 24.78M 218894.9 Stormwatch EU-Ravencrest
145 06 Aug 2012 01:53 24.54M 216712.4 Sýndicate EU-Anub'arak
146 21 Jul 2012 01:53 24.36M 215025.1 Бич с ЧШ EU-Король-лич
147 19 Apr 2012 01:53 24.95M 219888.4 Reckoning US-Mannoroth
148 02 Apr 2012 01:53 23.90M 210218.5 Biological Screwup EU-Ravencrest
149 01 Aug 2012 01:53 24.57M 215563.6 Unrivaled US-Bloodscalp
150 13 Aug 2012 01:53 23.91M 209808.7 Acaste EU-Свежеватель Душ
151 08 Aug 2012 01:54 24.49M 214710.4 Against All Odds US-Borean Tundra
152 11 May 2012 01:54 24.91M 218340.7 Busido EU-Ревущий фьорд
153 05 Aug 2012 01:54 25.15M 220400.3 abralfrlogz EU-Термоштепсель
154 16 Jan 2012 01:54 25.11M 220008.4 Zamey EU-Darkmoon Faire
155 11 Mar 2012 01:54 25.19M 220449.4 Созвездие EU-Вечная Песня
156 30 Jul 2012 01:54 24.80M 216917.3 Cool Whip US-Caelestrasz
157 03 May 2012 01:54 24.69M 215994.1 Sigil US-Kil'jaeden
158 23 Jun 2012 01:54 25.05M 219064.5 Iowen Logs EU-Гордунни
159 01 Jun 2012 01:54 24.53M 214325.1 Bruno Amani EU-Frostwolf
160 04 Mar 2012 01:54 24.69M 215714.8 Varjo Soturi Failbarone EU-Alleria
161 12 Apr 2012 01:54 24.50M 213565.6 Kinetic US-Alexstrasza
162 22 Feb 2012 01:54 23.94M 208508.0 Wayward US-Malfurion
163 29 Jul 2012 01:54 24.88M 216622.2 THE CLIQUE funlogs EU-Kazzak
164 03 May 2012 01:54 25.76M 224301.8 Insomnia US-Baelgun
165 05 Jun 2012 01:54 23.96M 208531.6 Фаэтон EU-Ясеневый лес
166 04 Mar 2012 01:54 23.40M 203564.8 Infusion US-Azjol-Nerub
167 05 Aug 2012 01:54 25.05M 217884.3 macdonald EU-Sargeras
168 04 Mar 2012 01:54 24.65M 214342.8 Alucard Privat Log EU-Nera'thor
169 09 Feb 2012 01:55 25.12M 218266.7 Space Jam US-Eredar
170 19 Feb 2012 01:55 24.89M 216140.8 Pure Evil EU-Tarren Mill
171 02 Jul 2012 01:55 24.69M 214377.2 Gwen Stefani US-Illidan
172 30 Jul 2012 01:55 26.08M 226389.8 Gwen Stefani US-Illidan
173 14 Feb 2012 01:55 24.79M 215109.2 Chainfire US-Mal'Ganis
174 14 Feb 2012 01:55 24.79M 215045.8 Chainfire US-Mal'Ganis
175 25 Aug 2012 01:55 24.53M 212360.2 kotini EU-Ясеневый лес
176 18 Jun 2012 01:55 24.35M 210753.1 Aurora EU-Stormrage
177 01 Jul 2012 01:55 25.15M 217343.2 ice-nil EU-Malfurion
178 02 Jul 2012 01:55 23.28M 201089.5 Harbinger EU-Wrathbringer
179 11 Aug 2012 01:55 24.97M 215517.2 Keekles lair EU-Thunderhorn
180 07 Aug 2012 01:55 23.77M 205115.7 Divinitii's Logs US-Zul'jin
181 19 Feb 2012 01:55 24.74M 213381.5 Созвездие EU-Вечная Песня
182 19 Aug 2012 01:56 24.17M 208264.9 Benzikura EU-Grim Batol
183 02 Jul 2012 01:56 24.19M 208445.9 Trollheals PUG US-Bleeding Hollow
184 01 Jan 2012 01:56 24.21M 208635.6 Riven US-Emerald Dream
185 26 Apr 2012 01:56 24.27M 209165.7 Entensity US-Stormscale
186 25 Jul 2012 01:56 24.81M 213722.9 Reanimation US-Barthilas
187 09 Aug 2012 01:56 24.62M 211980.4 You dont now me die zweite EU-Nathrezim
188 27 May 2012 01:56 23.71M 204134.7 Final Destination EU-Термоштепсель
189 09 Apr 2012 01:56 24.75M 212812.1 Eranthe US-Blackhand
190 04 Mar 2012 01:56 23.90M 205480.8 Punalogs US-Kil'jaeden
191 20 Feb 2012 01:56 24.43M 210030.0 DarkStorm EU-Zenedar
192 19 Jul 2012 01:56 25.16M 216264.2 Северная Одиссея 2-10 EU-Борейская тундра
193 16 Aug 2012 01:56 25.15M 216146.6 Cabbo US-Emerald Dream
194 15 Jul 2012 01:56 24.34M 209155.0 "М И Б" 87 EU-Черный Шрам
195 25 Apr 2012 01:56 25.28M 217218.1 Production Company US-Moonrunner
196 02 Jul 2012 01:56 24.15M 207285.7 Rédemptiøn EU-Uldaman
197 29 Mar 2012 01:56 24.06M 206470.0 Merithra's logs EU-Dun Modr
198 13 Jul 2012 01:56 24.49M 210141.4 Ryan's Logs EU-Chamber of Aspects
199 28 Mar 2012 01:56 25.09M 215131.5 Predicted EU-Festung der Stürme
200 25 Aug 2012 01:56 24.01M 205443.9 Логи дяди Дили EU-Ревущий фьорд

Please do not close the page with the ad you want to report.

I've posted a guide on how to report misbehaving ads on the forum. Please follow the instructions and help make the internet a safer place. Thanks for you time.